Time;durP1;ratioP1;P1;durP2;ratioP2;P2;SDS_P1;SDS_P2;PMS_P1;PMS_P2;Temp;Humidity;BMP_temperature;BMP_pressure;BME280_temperature;BME280_humidity;BME280_pressure;Samples;Min_cycle;Max_cycle;Signal;HPM_P1;HPM_P2
2022/05/06 00:01:23;;;;;;;8.85;6.03;;;;;;;6.58;55.86;101650.54;1779531;79;21518;-72
2022/05/06 00:03:50;;;;;;;7.78;5.30;;;;;;;6.58;55.66;101650.54;1795993;79;21482;-73
2022/05/06 00:06:17;;;;;;;8.83;5.05;;;;;;;6.55;55.47;101649.65;1773464;79;20962;-74
2022/05/06 00:08:43;;;;;;;8.98;5.60;;;;;;;6.54;55.41;101649.32;1760823;79;20959;-73
2022/05/06 00:11:10;;;;;;;7.87;5.08;;;;;;;6.52;55.39;101645.55;1799014;78;21100;-73
2022/05/06 00:13:38;;;;;;;9.33;5.80;;;;;;;6.50;55.55;101637.48;1803418;78;21015;-73
2022/05/06 00:16:06;;;;;;;8.28;5.40;;;;;;;6.48;55.75;101636.86;1795678;78;21094;-74
2022/05/06 00:18:35;;;;;;;8.73;6.00;;;;;;;6.46;56.07;101642.38;1796870;78;21513;-74
2022/05/06 00:21:02;;;;;;;10.30;6.05;;;;;;;6.43;56.65;101635.34;1802482;78;21097;-74
2022/05/06 00:23:29;;;;;;;9.23;5.85;;;;;;;6.40;57.06;101629.92;1804357;79;21230;-74
2022/05/06 00:25:56;;;;;;;8.80;5.80;;;;;;;6.39;57.23;101636.77;1803458;79;20947;-74
2022/05/06 00:28:23;;;;;;;8.35;5.58;;;;;;;6.37;57.56;101638.80;1803763;78;21068;-75
2022/05/06 00:30:50;;;;;;;10.78;6.03;;;;;;;6.35;57.81;101640.34;1805167;78;21033;-74
2022/05/06 00:33:17;;;;;;;8.50;5.22;;;;;;;6.34;57.72;101640.02;1803449;78;21435;-74
2022/05/06 00:35:45;;;;;;;8.45;5.47;;;;;;;6.32;57.54;101636.77;1802893;78;21544;-74
2022/05/06 00:38:12;;;;;;;9.03;5.05;;;;;;;6.32;57.35;101640.74;1803665;78;20960;-74
2022/05/06 00:40:40;;;;;;;8.68;5.25;;;;;;;6.30;57.12;101641.44;1807677;78;21502;-74
2022/05/06 00:43:07;;;;;;;8.13;4.90;;;;;;;6.29;56.84;101636.65;1803152;78;20998;-72
2022/05/06 00:45:40;;;;;;;9.95;4.90;;;;;;;6.29;56.50;101639.82;1803973;78;20995;-73
2022/05/06 00:48:09;;;;;;;9.48;4.62;;;;;;;6.29;56.25;101642.47;1802825;78;21803;-73
2022/05/06 00:50:38;;;;;;;9.30;5.22;;;;;;;6.28;56.11;101644.28;1772740;79;21038;-73
2022/05/06 00:53:07;;;;;;;8.88;4.75;;;;;;;6.28;55.96;101642.95;1772641;79;20955;-73
2022/05/06 00:55:35;;;;;;;8.30;4.78;;;;;;;6.26;55.90;101634.39;1803618;79;21074;-74
2022/05/06 00:58:03;;;;;;;10.35;4.90;;;;;;;6.26;55.88;101641.03;1805176;78;20985;-74
2022/05/06 01:00:30;;;;;;;7.53;4.75;;;;;;;6.27;56.41;101645.31;1803826;79;21539;-74
2022/05/06 01:02:57;;;;;;;7.62;4.70;;;;;;;6.29;56.62;101647.78;1804054;78;21156;-74
2022/05/06 01:05:24;;;;;;;9.00;5.05;;;;;;;6.29;56.16;101642.47;1803779;79;20967;-75
2022/05/06 01:07:52;;;;;;;8.33;3.90;;;;;;;6.31;56.07;101643.06;1802395;78;21062;-73
2022/05/06 01:10:21;;;;;;;6.45;4.30;;;;;;;6.32;55.74;101641.55;1803278;79;21011;-74
2022/05/06 01:12:50;;;;;;;7.80;3.60;;;;;;;6.34;55.40;101645.31;1804004;79;21253;-72
2022/05/06 01:15:28;;;;;;;6.03;3.67;;;;;;;6.34;54.84;101642.16;1803469;79;21018;-73
2022/05/06 01:17:57;;;;;;;7.20;3.60;;;;;;;6.36;54.16;101650.44;1801049;78;21066;-74
2022/05/06 01:20:25;;;;;;;6.20;3.80;;;;;;;6.38;53.64;101644.41;1803815;79;20984;-74
2022/05/06 01:22:58;;;;;;;6.58;3.70;;;;;;;6.38;53.34;101638.58;1803058;79;21030;-74
2022/05/06 01:25:26;;;;;;;6.28;3.85;;;;;;;6.39;53.17;101642.89;1803527;79;21619;-74
2022/05/06 01:28:01;;;;;;;6.72;3.67;;;;;;;6.40;53.07;101639.20;1803237;78;21093;-73
2022/05/06 01:30:41;;;;;;;7.72;3.98;;;;;;;6.39;53.32;101638.09;1772881;79;21006;-73
2022/05/06 01:33:11;;;;;;;7.67;3.80;;;;;;;6.39;54.18;101638.09;1802697;79;21026;-72
2022/05/06 01:35:53;;;;;;;7.08;4.00;;;;;;;6.38;54.25;101638.58;1767398;79;21061;-73
2022/05/06 01:38:47;;;;;;;7.72;4.00;;;;;;;6.37;54.76;101639.61;1789167;78;21804;-72
2022/05/06 01:41:24;;;;;;;6.28;3.90;;;;;;;6.34;54.82;101643.99;1803881;78;20979;-73
2022/05/06 01:43:59;;;;;;;6.80;4.10;;;;;;;6.30;55.24;101643.58;1795279;78;21002;-73
2022/05/06 01:46:28;;;;;;;9.43;4.40;;;;;;;6.27;55.55;101640.00;1804963;78;21125;-73
2022/05/06 01:48:56;;;;;;;7.85;4.83;;;;;;;6.24;55.47;101644.38;1803983;78;21007;-74
2022/05/06 01:51:25;;;;;;;7.60;4.95;;;;;;;6.21;56.54;101646.11;1803694;78;22126;-73
2022/05/06 01:53:52;;;;;;;9.88;4.60;;;;;;;6.18;57.59;101647.83;1767081;79;21014;-73
2022/05/06 01:56:21;;;;;;;7.60;5.12;;;;;;;6.15;58.31;101649.56;1811780;77;21113;-73
2022/05/06 01:58:51;;;;;;;9.75;5.65;;;;;;;6.12;58.99;101651.31;1793385;78;21062;-73
2022/05/06 02:01:18;;;;;;;9.25;5.70;;;;;;;6.09;59.59;101651.72;1802539;79;21490;-73
2022/05/06 02:06:33;;;;;;;7.45;5.33;;;;;;;6.03;60.61;101652.52;1804298;78;21482;-73
2022/05/06 02:09:11;;;;;;;10.35;5.33;;;;;;;6.00;61.03;101664.33;1801672;79;21419;-74
2022/05/06 02:11:40;;;;;;;7.45;5.17;;;;;;;5.99;61.50;101666.68;1803139;79;20983;-73
2022/05/06 02:14:07;;;;;;;7.50;4.80;;;;;;;6.00;61.71;101664.84;1803688;78;21592;-73
2022/05/06 02:16:45;;;;;;;8.05;4.83;;;;;;;6.00;61.78;101668.81;1796888;79;21408;-73
2022/05/06 02:19:20;;;;;;;7.90;5.00;;;;;;;5.99;62.03;101667.16;1802487;79;21011;-73
2022/05/06 02:21:49;;;;;;;8.43;5.42;;;;;;;6.00;62.15;101670.14;1802880;79;21047;-73
2022/05/06 02:24:18;;;;;;;8.83;5.53;;;;;;;5.99;62.32;101673.31;1759112;79;21018;-73
2022/05/06 02:26:59;;;;;;;8.28;5.75;;;;;;;5.96;62.66;101665.75;1755444;79;21045;-73
2022/05/06 02:29:28;;;;;;;9.18;5.17;;;;;;;5.95;63.03;101677.35;1804044;79;21153;-73
2022/05/06 02:34:42;;;;;;;8.73;4.90;;;;;;;5.90;63.28;101685.06;1803902;78;21002;-73
2022/05/06 02:37:10;;;;;;;8.08;5.55;;;;;;;5.86;63.47;101679.34;1803516;78;21026;-73
2022/05/06 02:39:39;;;;;;;8.25;5.83;;;;;;;5.85;63.66;101681.66;1802644;79;21478;-73
2022/05/06 02:42:14;;;;;;;8.55;5.37;;;;;;;5.83;63.73;101677.60;1803638;78;21244;-73
2022/05/06 02:44:43;;;;;;;8.80;5.60;;;;;;;5.80;63.94;101685.44;1771763;80;21003;-73
2022/05/06 02:47:11;;;;;;;7.62;5.37;;;;;;;5.80;64.15;101685.44;1783680;79;21455;-73
2022/05/06 02:49:40;;;;;;;8.50;5.72;;;;;;;5.80;64.36;101688.09;1805830;79;21045;-73
2022/05/06 02:52:09;;;;;;;9.03;5.80;;;;;;;5.82;64.61;101690.05;1806478;79;21038;-73
2022/05/06 02:54:36;;;;;;;10.40;6.67;;;;;;;5.86;64.78;101694.44;1773002;79;22004;-73
2022/05/06 02:57:05;;;;;;;9.55;5.50;;;;;;;5.86;64.93;101695.25;1809464;78;21136;-73
2022/05/06 02:59:33;;;;;;;8.35;5.70;;;;;;;5.90;65.00;101697.52;1793155;79;20991;-73
2022/05/06 03:02:00;;;;;;;10.13;5.80;;;;;;;5.93;65.01;101693.17;1806862;78;21508;-73
2022/05/06 03:04:28;;;;;;;11.05;6.30;;;;;;;5.96;64.92;101691.45;1809660;79;21041;-72
2022/05/06 03:06:55;;;;;;;9.18;5.95;;;;;;;5.98;64.74;101686.23;1809278;78;21132;-73
2022/05/06 03:09:26;;;;;;;10.65;6.92;;;;;;;6.02;64.62;101691.48;1808928;78;20978;-73
2022/05/06 03:11:54;;;;;;;9.03;5.83;;;;;;;6.06;64.55;101690.06;1807240;78;21013;-72
2022/05/06 03:14:21;;;;;;;11.12;5.58;;;;;;;6.11;64.45;101699.55;1807064;78;21539;-74
2022/05/06 03:16:56;;;;;;;9.85;6.15;;;;;;;6.18;64.30;101696.09;1804513;78;21398;-72
2022/05/06 03:19:24;;;;;;;8.80;5.28;;;;;;;6.24;64.23;101700.09;1805927;79;21111;-73
2022/05/06 03:21:54;;;;;;;9.15;5.50;;;;;;;6.31;64.14;101696.13;1807835;78;21082;-73
2022/05/06 03:24:21;;;;;;;7.72;5.10;;;;;;;6.36;64.18;101696.36;1806355;79;21042;-73
2022/05/06 03:26:49;;;;;;;9.58;5.40;;;;;;;6.42;63.99;101697.41;1777227;79;20979;-73
2022/05/06 03:29:16;;;;;;;9.28;5.60;;;;;;;6.47;63.50;101692.30;1807723;78;21093;-74
2022/05/06 03:31:43;;;;;;;7.72;5.30;;;;;;;6.54;63.06;101695.77;1806593;79;21202;-73
2022/05/06 03:34:12;;;;;;;7.92;4.90;;;;;;;6.61;62.86;101688.63;1807041;78;21089;-73
2022/05/06 03:36:41;;;;;;;8.88;4.95;;;;;;;6.70;62.49;101693.24;1806130;78;21462;-73
2022/05/06 03:39:11;;;;;;;6.97;4.80;;;;;;;6.77;61.77;101696.20;1806947;78;21187;-73
2022/05/06 03:41:49;;;;;;;6.83;4.37;;;;;;;6.87;61.08;101694.47;1806422;79;20951;-73
2022/05/06 03:44:17;;;;;;;8.90;4.58;;;;;;;6.98;60.19;101696.53;1806969;78;21057;-73
2022/05/06 03:46:47;;;;;;;7.47;4.85;;;;;;;7.10;59.50;101697.22;1806054;79;21058;-73
2022/05/06 03:49:14;;;;;;;8.10;5.20;;;;;;;7.23;58.83;101703.85;1807315;78;20959;-73
2022/05/06 03:51:47;;;;;;;9.13;4.75;;;;;;;7.35;58.26;101702.72;1807121;78;21042;-73
2022/05/06 03:54:16;;;;;;;9.30;5.08;;;;;;;7.48;57.76;101712.00;1806970;78;20998;-71
2022/05/06 03:56:44;;;;;;;7.45;4.62;;;;;;;7.60;56.94;101708.17;1806017;79;21250;-72
2022/05/06 03:59:11;;;;;;;6.78;4.33;;;;;;;7.71;56.08;101708.88;1807801;78;21066;-72
2022/05/06 04:01:40;;;;;;;7.75;4.20;;;;;;;7.84;55.59;101714.66;1806530;79;20986;-73
2022/05/06 04:04:09;;;;;;;8.30;4.45;;;;;;;7.95;55.11;101715.33;1806208;79;21018;-73
2022/05/06 04:06:37;;;;;;;7.62;4.33;;;;;;;8.08;54.84;101717.93;1806812;79;20990;-73
2022/05/06 04:09:07;;;;;;;8.73;3.80;;;;;;;8.20;54.49;101717.58;1809617;78;21152;-72
2022/05/06 04:11:40;;;;;;;7.33;4.22;;;;;;;8.34;54.14;101720.16;1812420;78;21407;-72
2022/05/06 04:14:09;;;;;;;6.92;3.75;;;;;;;8.49;53.95;101719.89;1777571;79;20966;-74
2022/05/06 04:16:38;;;;;;;6.58;3.77;;;;;;;8.62;53.89;101719.31;1805732;78;21018;-73
2022/05/06 04:19:07;;;;;;;8.50;3.40;;;;;;;8.78;53.58;101718.47;1806811;79;20966;-73
2022/05/06 04:24:22;;;;;;;6.72;3.83;;;;;;;9.04;52.82;101714.27;1807160;79;21486;-73
2022/05/06 04:26:50;;;;;;;8.85;4.28;;;;;;;9.20;52.55;101714.75;1806492;78;21112;-72
2022/05/06 04:29:17;;;;;;;8.28;4.42;;;;;;;9.34;52.32;101720.25;1807165;78;21001;-72
2022/05/06 04:31:45;;;;;;;9.00;4.45;;;;;;;9.48;51.88;101716.43;1806150;78;21070;-74
2022/05/06 04:34:13;;;;;;;5.78;3.65;;;;;;;9.62;51.37;101718.44;1797582;78;21824;-73
2022/05/06 04:36:42;;;;;;;8.55;4.22;;;;;;;9.77;51.30;101713.55;1789992;78;21156;-74
2022/05/06 04:39:12;;;;;;;6.85;4.15;;;;;;;9.92;51.28;101715.02;1807374;78;21068;-73
2022/05/06 04:41:45;;;;;;;7.08;4.22;;;;;;;10.04;50.87;101710.03;1796328;79;21105;-73
2022/05/06 04:44:12;;;;;;;8.05;4.40;;;;;;;10.18;50.20;101701.86;1807112;79;21524;-72
2022/05/06 04:46:41;;;;;;;9.15;4.97;;;;;;;10.29;49.92;101710.45;1806395;78;21143;-73
2022/05/06 04:49:09;;;;;;;7.92;4.35;;;;;;;10.39;49.65;101709.38;1806322;79;21553;-72
2022/05/06 04:51:37;;;;;;;9.18;4.55;;;;;;;10.50;49.75;101706.48;1807739;78;20991;-72
2022/05/06 04:54:06;;;;;;;7.28;4.83;;;;;;;10.59;49.11;101705.08;1807366;79;21045;-72
2022/05/06 04:56:33;;;;;;;7.45;4.25;;;;;;;10.67;48.77;101708.77;1807208;78;21034;-72
2022/05/06 04:59:03;;;;;;;6.58;4.42;;;;;;;10.76;48.49;101711.94;1776744;79;21331;-73
2022/05/06 05:01:32;;;;;;;8.43;4.70;;;;;;;10.87;48.15;101717.00;1806145;79;21062;-73
2022/05/06 05:04:00;;;;;;;6.12;4.12;;;;;;;10.99;47.94;101716.47;1807050;79;21006;-73
2022/05/06 05:06:27;;;;;;;8.08;4.10;;;;;;;11.12;47.61;101713.61;1806210;78;21579;-72
2022/05/06 05:08:54;;;;;;;7.05;4.15;;;;;;;11.26;47.57;101716.86;1777597;79;21026;-74
2022/05/06 05:11:22;;;;;;;7.95;3.67;;;;;;;11.40;47.16;101718.23;1806901;78;21216;-73
2022/05/06 05:13:52;;;;;;;8.38;4.20;;;;;;;11.53;46.73;101723.88;1805604;79;21105;-73
2022/05/06 05:16:24;;;;;;;;;;;;;;;11.62;46.23;101723.81;1809087;78;20950;-73
2022/05/06 05:18:51;;;;;;;6.35;4.33;;;;;;;11.76;46.34;101723.02;1807075;79;20151;-74
2022/05/06 05:21:18;;;;;;;5.85;4.00;;;;;;;11.86;45.95;101721.92;1806338;79;21051;-72
2022/05/06 05:23:45;;;;;;;7.42;4.40;;;;;;;11.99;45.37;101726.73;1803387;79;21004;-74
2022/05/06 05:26:13;;;;;;;6.42;3.80;;;;;;;12.09;45.38;101723.72;1806547;78;20986;-73
2022/05/06 05:28:41;;;;;;;6.03;3.98;;;;;;;12.23;45.20;101718.88;1806325;78;20995;-73
2022/05/06 05:31:09;;;;;;;8.08;3.83;;;;;;;12.39;45.26;101721.33;1806216;79;21521;-73
2022/05/06 05:33:37;;;;;;;6.85;3.77;;;;;;;12.55;44.85;101725.91;1777529;78;21401;-73
2022/05/06 05:36:05;;;;;;;7.97;4.15;;;;;;;12.70;44.50;101729.39;1806451;79;21188;-73
2022/05/06 05:38:32;;;;;;;8.58;4.20;;;;;;;12.84;44.24;101722.64;1803632;79;21010;-73
2022/05/06 05:41:00;;;;;;;5.65;3.62;;;;;;;12.96;43.48;101724.42;1806916;79;21597;-73
2022/05/06 05:48:59;;;;;;;6.40;3.90;;;;;;;13.28;42.96;101732.19;1793940;79;21214;-73
2022/05/06 05:51:27;;;;;;;7.65;3.70;;;;;;;13.40;43.03;101719.22;1807105;79;21018;-73
2022/05/06 05:53:56;;;;;;;5.97;3.67;;;;;;;13.50;43.03;101716.14;1806380;78;21046;-73
2022/05/06 05:56:23;;;;;;;6.60;4.45;;;;;;;13.58;42.38;101720.26;1807052;78;21208;-73
2022/05/06 05:58:51;;;;;;;6.05;3.27;;;;;;;13.69;42.41;101719.34;1829089;78;20953;-74
2022/05/06 06:01:20;;;;;;;7.20;3.62;;;;;;;13.79;42.35;101717.33;1794461;79;24001;-72
2022/05/06 06:03:48;;;;;;;7.22;3.25;;;;;;;13.90;42.03;101715.56;1803432;78;21015;-74
2022/05/06 06:06:16;;;;;;;7.12;3.22;;;;;;;14.02;41.61;101722.97;1802825;78;21022;-73
2022/05/06 06:08:45;;;;;;;7.58;3.05;;;;;;;14.16;41.43;101717.47;1808181;77;21493;-73
2022/05/06 06:11:13;;;;;;;6.55;3.20;;;;;;;14.33;40.48;101712.54;1787468;78;21046;-73
2022/05/06 06:13:44;;;;;;;4.83;3.00;;;;;;;14.45;40.20;101714.02;1786315;79;21158;-73
2022/05/06 06:16:14;;;;;;;8.00;3.27;;;;;;;14.58;40.12;101709.30;1812326;78;20970;-74
2022/05/06 06:18:43;;;;;;;5.30;3.08;;;;;;;14.74;39.76;101705.16;1802786;79;20967;-72
2022/05/06 06:21:14;;;;;;;5.00;2.77;;;;;;;14.89;39.40;101702.30;1801406;79;21006;-72
2022/05/06 06:23:41;;;;;;;4.87;2.87;;;;;;;15.05;39.57;101704.03;1794792;78;21426;-73
2022/05/06 06:26:09;;;;;;;4.73;2.90;;;;;;;15.18;38.80;101706.28;1804431;78;21137;-73
2022/05/06 06:28:38;;;;;;;5.27;2.80;;;;;;;15.28;38.26;101706.88;1803420;78;21330;-72
2022/05/06 06:31:07;;;;;;;5.33;2.90;;;;;;;15.38;37.63;101707.47;1805888;77;21645;-73
2022/05/06 06:33:38;;;;;;;4.97;2.50;;;;;;;15.40;37.10;101712.88;1801301;78;21324;-73
2022/05/06 06:36:04;;;;;;;5.53;3.10;;;;;;;15.48;37.06;101708.33;1800058;78;21708;-72
2022/05/06 06:38:32;;;;;;;8.43;2.73;;;;;;;15.54;36.18;101704.33;1799259;78;21935;-73
2022/05/06 06:41:03;;;;;;;5.80;2.63;;;;;;;15.53;36.31;101706.22;1800832;78;21797;-74
2022/05/06 06:43:28;;;;;;;7.10;3.00;;;;;;;15.61;36.56;101709.74;1801330;78;21293;-73
2022/05/06 06:46:12;;;;;;;6.00;2.67;;;;;;;15.71;36.95;101707.66;1799788;77;21259;-72
2022/05/06 06:48:50;;;;;;;6.87;2.60;;;;;;;15.88;36.84;101712.84;1812816;76;21203;-72
2022/05/06 06:51:21;;;;;;;6.33;2.92;;;;;;;16.05;36.41;101711.28;1806626;78;21785;-73
2022/05/06 06:53:53;;;;;;;6.27;2.63;;;;;;;16.17;35.96;101704.58;1801440;78;21029;-75
2022/05/06 06:56:21;;;;;;;7.90;2.90;;;;;;;16.31;35.38;101712.15;1804944;78;21280;-73
2022/05/06 06:58:49;;;;;;;9.23;2.80;;;;;;;16.43;35.21;101712.71;1803287;79;21251;-73
2022/05/06 07:01:16;;;;;;;6.03;2.50;;;;;;;16.55;34.77;101716.48;1803460;79;21230;-73
2022/05/06 07:03:43;;;;;;;7.30;2.40;;;;;;;16.70;33.75;101710.30;1808001;78;21263;-73
2022/05/06 07:11:54;;;;;;;5.73;1.80;;;;;;;16.97;31.98;101713.55;1803920;78;21261;-72
2022/05/06 07:14:21;;;;;;;6.13;1.87;;;;;;;17.07;31.21;101705.44;1799985;78;21270;-73
2022/05/06 07:16:50;;;;;;;7.87;1.87;;;;;;;17.16;31.54;101707.59;1803865;79;21211;-73
2022/05/06 07:19:17;;;;;;;4.47;1.80;;;;;;;17.24;31.06;101708.37;1805398;78;22378;-73
2022/05/06 07:21:44;;;;;;;3.67;1.90;;;;;;;17.33;30.47;101708.09;1802915;78;21242;-73
2022/05/06 07:24:12;;;;;;;4.87;2.10;;;;;;;17.42;30.59;101701.05;1801554;78;21487;-74
2022/05/06 07:26:39;;;;;;;4.53;1.40;;;;;;;17.50;30.67;101700.47;1794671;78;21738;-73
2022/05/06 07:29:10;;;;;;;4.57;1.83;;;;;;;17.64;30.38;101699.91;1804898;78;21365;-75
2022/05/06 07:31:38;;;;;;;8.57;2.20;;;;;;;17.73;29.87;101702.28;1806526;79;21406;-75
2022/05/06 07:34:05;;;;;;;6.10;2.10;;;;;;;17.95;27.86;101697.34;1784301;79;21239;-74
2022/05/06 07:36:35;;;;;;;5.33;1.80;;;;;;;18.03;27.53;101693.23;1754906;78;21944;-74
2022/05/06 07:39:02;;;;;;;4.53;1.87;;;;;;;18.03;27.53;101693.23;1804611;78;21561;-73
2022/05/06 07:41:30;;;;;;;4.63;1.67;;;;;;;18.07;25.84;101696.22;1806812;78;22222;-73
2022/05/06 07:43:59;;;;;;;4.60;1.50;;;;;;;18.02;25.01;101696.48;1804765;78;21728;-72
2022/05/06 07:46:28;;;;;;;5.10;1.83;;;;;;;18.03;25.35;101690.53;1809392;78;21735;-73
2022/05/06 07:48:55;;;;;;;5.43;1.80;;;;;;;18.03;25.35;101690.53;1804340;79;21423;-73
2022/05/06 07:51:23;;;;;;;5.57;1.50;;;;;;;18.17;26.62;101697.50;1803791;79;21673;-74
2022/05/06 07:53:52;;;;;;;4.43;1.50;;;;;;;18.31;25.82;101691.72;1798418;78;21609;-73
2022/05/06 07:56:20;;;;;;;3.77;1.63;;;;;;;18.41;25.08;101690.29;1803935;79;21680;-73
2022/05/06 07:58:47;;;;;;;4.40;1.50;;;;;;;18.47;24.69;101691.88;1803727;79;21521;-72
2022/05/06 08:01:14;;;;;;;2.43;1.30;;;;;;;18.57;24.74;101690.19;1803747;78;21711;-73
2022/05/06 08:06:30;;;;;;;3.57;1.93;;;;;;;18.62;23.88;101686.88;1803896;79;21686;-73
2022/05/06 08:08:57;;;;;;;4.30;1.67;;;;;;;18.53;23.67;101688.59;1803831;79;22062;-72
2022/05/06 08:11:24;;;;;;;3.53;1.67;;;;;;;18.43;23.60;101681.36;1804686;79;21721;-73
2022/05/06 08:13:52;;;;;;;4.37;1.40;;;;;;;18.38;24.64;101692.20;1804412;78;22259;-72
2022/05/06 08:16:25;;;;;;;4.63;1.40;;;;;;;18.45;24.71;101688.63;1786190;79;22189;-73
2022/05/06 08:18:53;;;;;;;3.47;1.60;;;;;;;18.62;24.68;101687.42;1804662;79;22242;-74
2022/05/06 08:21:22;;;;;;;3.03;1.30;;;;;;;18.78;24.61;101686.78;1804968;79;21697;-73
2022/05/06 08:23:51;;;;;;;4.10;1.70;;;;;;;18.82;22.72;101685.11;1804387;78;21679;-74
2022/05/06 08:26:18;;;;;;;4.63;1.80;;;;;;;18.70;23.75;101687.63;1798599;79;21665;-73
2022/05/06 08:28:47;;;;;;;2.87;1.70;;;;;;;18.80;24.00;101684.61;1803514;78;21685;-72
2022/05/06 08:31:14;;;;;;;3.20;1.57;;;;;;;18.97;24.04;101684.42;1803390;79;22180;-72
2022/05/06 08:33:43;;;;;;;2.77;1.70;;;;;;;19.09;22.64;101676.48;1803536;79;21633;-73
2022/05/06 08:36:11;;;;;;;4.10;1.53;;;;;;;19.15;23.60;101680.72;1802860;79;21736;-74
2022/05/06 08:38:39;;;;;;;3.87;1.60;;;;;;;19.15;23.60;101680.72;1804228;79;21474;-74
2022/05/06 08:41:06;;;;;;;3.40;1.67;;;;;;;19.27;22.94;101685.75;1804418;79;22191;-74
2022/05/06 08:43:33;;;;;;;3.23;1.37;;;;;;;19.37;23.12;101677.51;1804174;79;21780;-74
2022/05/06 08:51:32;;;;;;;4.40;1.90;;;;;;;19.71;22.65;101675.22;1802679;79;21735;-72
2022/05/06 08:53:59;;;;;;;3.63;1.63;;;;;;;19.76;22.36;101671.91;1803606;79;21403;-72
2022/05/06 08:56:25;;;;;;;2.87;1.70;;;;;;;19.80;22.93;101667.50;1803948;79;21101;-74
2022/05/06 08:58:55;;;;;;;3.77;1.70;;;;;;;19.89;23.43;101665.76;1803001;79;21050;-74
2022/05/06 09:01:22;;;;;;;3.67;2.10;;;;;;;19.95;23.52;101662.43;1802572;79;20962;-74
2022/05/06 09:03:49;;;;;;;6.37;2.10;;;;;;;19.90;23.56;101660.58;1803738;79;21059;-74
2022/05/06 09:06:23;;;;;;;5.63;1.97;;;;;;;19.87;23.02;101658.48;1802847;79;21159;-74
2022/05/06 09:08:52;;;;;;;3.37;1.90;;;;;;;19.96;23.30;101655.09;1803758;78;21257;-73
2022/05/06 09:14:15;;;;;;;4.07;1.77;;;;;;;20.11;22.35;101650.81;1804060;79;21046;-74
2022/05/06 09:16:42;;;;;;;5.17;2.00;;;;;;;20.14;22.97;101655.66;1773142;79;21063;-73
2022/05/06 09:19:23;;;;;;;2.60;1.50;;;;;;;20.25;22.72;101649.52;1803569;79;20979;-74
2022/05/06 09:22:17;;;;;;;5.08;2.25;;;;;;;20.28;22.74;101649.72;1789003;79;21918;-74
2022/05/06 09:24:54;;;;;;;4.37;1.70;;;;;;;20.29;22.86;101646.45;1805070;79;21164;-73
2022/05/06 09:27:18;;;;;;;3.60;1.63;;;;;;;20.36;22.91;101640.09;1805745;78;21026;-72
2022/05/06 09:29:51;;;;;;;5.00;2.00;;;;;;;20.45;22.26;101637.52;1806461;78;21571;-72
2022/05/06 09:32:26;;;;;;;3.77;1.93;;;;;;;20.52;22.74;101640.13;1787643;78;21010;-74
2022/05/06 09:35:13;;;;;;;4.30;1.97;;;;;;;20.61;22.14;101640.26;1804213;78;22054;-74
2022/05/06 09:37:46;;;;;;;2.67;1.63;;;;;;;20.65;21.76;101632.32;1802705;78;21629;-73
2022/05/06 09:40:20;;;;;;;3.30;1.70;;;;;;;20.64;21.58;101633.44;1804008;78;21037;-73
2022/05/06 09:42:59;;;;;;;4.47;1.77;;;;;;;20.63;21.80;101635.32;1804262;79;20947;-73
2022/05/06 09:45:42;;;;;;;5.83;2.10;;;;;;;20.67;21.38;101634.20;1803084;78;20987;-73
2022/05/06 09:48:11;;;;;;;3.97;1.90;;;;;;;20.68;21.89;101637.16;1803669;78;21071;-74
2022/05/06 09:50:47;;;;;;;3.80;1.90;;;;;;;20.73;22.21;101639.23;1803915;78;21050;-73
2022/05/06 09:53:16;;;;;;;4.47;1.80;;;;;;;20.82;21.66;101634.70;1803848;78;20990;-73
2022/05/06 09:55:45;;;;;;;4.30;1.80;;;;;;;20.88;21.53;101635.98;1802964;78;20991;-72
2022/05/06 09:58:18;;;;;;;3.27;1.67;;;;;;;20.93;21.51;101628.55;1804609;78;21006;-75
2022/05/06 10:00:47;;;;;;;3.70;1.77;;;;;;;21.00;22.62;101632.23;1764791;78;20986;-71
2022/05/06 10:03:19;;;;;;;3.00;1.70;;;;;;;21.08;21.91;101626.08;1775325;79;21065;-75
2022/05/06 10:05:45;;;;;;;3.80;2.00;;;;;;;;;;1803932;78;21007;-73
2022/05/06 10:08:18;;;;;;;3.57;1.70;;;;;;;21.16;22.31;101631.34;1803698;79;21074;-73
2022/05/06 10:10:59;;;;;;;4.97;2.20;;;;;;;21.22;21.74;101626.91;1803615;78;21046;-75
2022/05/06 10:13:28;;;;;;;3.62;2.20;;;;;;;21.24;20.95;101620.59;1803658;78;21197;-73
2022/05/06 10:15:55;;;;;;;4.60;1.83;;;;;;;21.07;20.31;101619.84;1804049;78;20979;-73
2022/05/06 10:18:38;;;;;;;3.23;1.87;;;;;;;20.99;21.72;101621.09;1804104;78;21038;-73
2022/05/06 10:21:10;;;;;;;5.60;1.90;;;;;;;21.01;21.43;101620.25;1803604;78;21037;-74
2022/05/06 10:23:57;;;;;;;2.90;1.77;;;;;;;21.05;21.28;101623.41;1804221;78;20988;-74
2022/05/06 10:26:45;;;;;;;4.83;1.90;;;;;;;21.15;21.92;101616.97;1796095;77;21903;-73
2022/05/06 10:32:25;;;;;;;3.80;1.87;;;;;;;21.39;21.93;101610.53;1803318;78;21430;-73
2022/05/06 10:35:05;;;;;;;3.40;1.90;;;;;;;21.48;21.13;101607.35;1803527;78;21077;-74
2022/05/06 10:37:37;;;;;;;3.20;2.27;;;;;;;21.47;21.54;101606.55;1803446;78;21584;-74
2022/05/06 10:40:29;;;;;;;3.07;1.80;;;;;;;21.52;21.23;101611.09;1804261;78;21748;-73
2022/05/06 10:42:56;;;;;;;3.60;2.00;;;;;;;21.48;20.46;101606.00;1803464;78;20991;-73
2022/05/06 10:45:31;;;;;;;3.40;1.93;;;;;;;21.36;21.76;101612.53;1803663;78;21568;-73
2022/05/06 10:47:58;;;;;;;3.00;1.87;;;;;;;21.40;21.90;101598.58;1803674;78;20951;-74
2022/05/06 10:50:29;;;;;;;5.40;2.50;;;;;;;21.53;20.99;101597.18;1803901;78;21659;-73
2022/05/06 10:52:53;;;;;;;3.63;1.93;;;;;;;21.62;20.04;101595.91;1803588;78;21238;-73
2022/05/06 10:55:21;;;;;;;3.73;2.00;;;;;;;21.62;20.76;101591.84;1772246;78;21022;-73
2022/05/06 10:57:58;;;;;;;3.20;2.00;;;;;;;21.66;21.36;101590.11;1787846;78;20975;-74
2022/05/06 11:00:29;;;;;;;3.40;1.90;;;;;;;21.73;20.52;101584.24;1804682;78;20978;-73
2022/05/06 11:02:58;;;;;;;2.90;1.73;;;;;;;21.75;20.42;101574.67;1803465;78;20986;-73
2022/05/06 11:05:27;;;;;;;4.43;1.97;;;;;;;21.78;21.16;101575.95;1804041;78;22226;-75
2022/05/06 11:07:56;;;;;;;4.87;1.93;;;;;;;21.85;21.13;101572.80;1803186;78;21010;-73
2022/05/06 11:10:28;;;;;;;3.97;2.10;;;;;;;21.89;21.45;101569.17;1803698;78;21532;-74
2022/05/06 11:12:57;;;;;;;;;;;;;;;21.91;20.69;101561.49;1804026;78;21077;-72
2022/05/06 11:15:32;;;;;;;3.67;1.90;;;;;;;21.94;19.64;101564.95;1804119;78;20144;-72
2022/05/06 11:18:06;;;;;;;5.30;1.90;;;;;;;21.88;20.10;101561.31;1803971;78;21237;-73
2022/05/06 11:20:37;;;;;;;5.13;2.40;;;;;;;21.89;20.88;101561.58;1804068;78;20982;-75
2022/05/06 11:23:10;;;;;;;3.80;1.93;;;;;;;21.92;20.20;101559.04;1803252;78;21019;-73
2022/05/06 11:25:45;;;;;;;3.87;1.97;;;;;;;21.92;19.90;101553.60;1800154;78;21025;-74
2022/05/06 11:28:18;;;;;;;4.77;2.10;;;;;;;21.93;20.32;101550.32;1804021;78;21104;-72
2022/05/06 11:30:47;;;;;;;3.90;2.20;;;;;;;22.00;20.90;101550.69;1804116;78;21102;-73
2022/05/06 11:33:28;;;;;;;3.97;1.87;;;;;;;22.12;20.12;101537.89;1802942;78;21466;-74
2022/05/06 11:36:04;;;;;;;4.40;2.20;;;;;;;22.21;19.62;101537.39;1804119;78;21514;-73
2022/05/06 11:38:36;;;;;;;5.63;2.27;;;;;;;22.22;20.81;101540.38;1803903;78;21644;-73
2022/05/06 11:41:12;;;;;;;3.20;2.07;;;;;;;22.28;20.34;101535.58;1804069;78;21046;-74
2022/05/06 11:43:42;;;;;;;4.83;2.00;;;;;;;22.32;20.47;101529.78;1802793;78;21159;-73
2022/05/06 11:49:06;;;;;;;4.30;1.87;;;;;;;22.24;20.44;101533.52;1790840;78;21307;-74
2022/05/06 11:51:43;;;;;;;3.97;1.60;;;;;;;22.31;20.57;101519.99;1803722;78;21466;-73
2022/05/06 11:54:10;;;;;;;5.20;2.40;;;;;;;22.34;20.54;101523.45;1802790;78;21049;-73
2022/05/06 11:56:37;;;;;;;3.83;1.90;;;;;;;22.34;20.60;101512.56;1796665;78;21116;-72
2022/05/06 11:59:05;;;;;;;4.70;2.23;;;;;;;22.40;20.87;101515.39;1803539;79;21054;-74
2022/05/06 12:01:34;;;;;;;3.33;1.80;;;;;;;22.47;20.52;101508.94;1803438;79;21149;-73
2022/05/06 12:04:08;;;;;;;4.90;2.20;;;;;;;22.55;20.68;101502.73;1803705;79;20995;-73
2022/05/06 12:06:38;;;;;;;5.23;2.20;;;;;;;22.53;20.73;101506.88;1802981;79;20939;-73
2022/05/06 12:09:12;;;;;;;3.70;2.00;;;;;;;22.46;20.34;101499.17;1800693;79;21783;-73
2022/05/06 12:11:41;;;;;;;4.73;2.00;;;;;;;22.39;20.36;101501.55;1803154;79;20975;-73
2022/05/06 12:14:13;;;;;;;4.00;2.03;;;;;;;22.42;20.47;101499.56;1803659;78;21093;-73
2022/05/06 12:16:58;;;;;;;4.73;2.10;;;;;;;22.47;20.09;101498.88;1803551;79;21034;-74
2022/05/06 12:19:45;;;;;;;4.60;2.17;;;;;;;22.55;20.67;101494.57;1785880;78;21041;-73